createdAt,value
2023-04-12T00:01:08.202Z,8.56
2023-04-12T00:04:14.631Z,8.43
2023-04-12T00:07:18.464Z,8.37
2023-04-12T00:10:21.708Z,8.46
2023-04-12T00:13:24.072Z,8.42
2023-04-12T00:16:27.172Z,8.35
2023-04-12T00:19:31.075Z,8.38
2023-04-12T00:22:34.062Z,8.39
2023-04-12T00:25:38.582Z,8.30
2023-04-12T00:28:42.108Z,8.39
2023-04-12T00:31:44.645Z,8.32
2023-04-12T00:34:47.976Z,8.28
2023-04-12T00:37:50.655Z,8.23
2023-04-12T00:40:53.577Z,8.14
2023-04-12T00:43:56.009Z,8.16
2023-04-12T00:47:03.896Z,8.15
2023-04-12T00:50:06.682Z,8.20
2023-04-12T00:53:13.405Z,8.02
2023-04-12T00:56:16.167Z,8.02
2023-04-12T00:59:19.102Z,8.03
2023-04-12T01:02:24.589Z,7.99
2023-04-12T01:05:28.723Z,8.13
2023-04-12T01:08:40.827Z,7.98
2023-04-12T01:11:51.558Z,8.02
2023-04-12T01:14:54.265Z,7.94
2023-04-12T01:18:17.454Z,7.95
2023-04-12T01:21:24.474Z,7.92
2023-04-12T01:24:36.914Z,7.90
2023-04-12T01:27:43.466Z,8.00
2023-04-12T01:30:48.128Z,7.84
2023-04-12T01:33:51.993Z,7.70
2023-04-12T01:36:55.386Z,7.71
2023-04-12T01:39:57.691Z,7.71
2023-04-12T01:43:07.177Z,7.77
2023-04-12T01:46:11.873Z,7.68
2023-04-12T01:49:16.218Z,7.71
2023-04-12T01:52:20.768Z,7.65
2023-04-12T01:55:25.472Z,7.73
2023-04-12T01:58:29.577Z,7.70
2023-04-12T02:01:33.740Z,7.66
2023-04-12T02:04:37.713Z,7.65
2023-04-12T02:07:41.017Z,7.65
2023-04-12T02:10:44.114Z,7.64
2023-04-12T02:13:46.998Z,7.66
2023-04-12T02:16:50.772Z,7.51
2023-04-12T02:19:55.727Z,7.46
2023-04-12T02:22:58.133Z,7.45
2023-04-12T02:26:01.158Z,7.65
2023-04-12T02:29:07.780Z,7.56
2023-04-12T02:32:11.313Z,7.54
2023-04-12T02:35:17.706Z,7.49
2023-04-12T02:38:21.371Z,7.53
2023-04-12T02:41:24.562Z,7.51
2023-04-12T02:44:31.518Z,7.55
2023-04-12T02:47:34.723Z,7.46
2023-04-12T02:50:38.451Z,7.45
2023-04-12T02:53:42.822Z,7.43
2023-04-12T02:56:46.124Z,7.44
2023-04-12T02:59:53.335Z,7.41
2023-04-12T03:02:58.969Z,7.49
2023-04-12T03:06:01.702Z,7.36
2023-04-12T03:09:04.762Z,7.41
2023-04-12T03:12:07.182Z,7.42
2023-04-12T03:15:10.858Z,7.41
2023-04-12T03:18:13.417Z,7.35
2023-04-12T03:21:17.809Z,7.42
2023-04-12T03:24:20.549Z,7.35
2023-04-12T03:27:23.675Z,7.41
2023-04-12T03:30:26.504Z,7.38
2023-04-12T03:33:29.715Z,7.43
2023-04-12T03:36:33.037Z,7.37
2023-04-12T03:39:37.194Z,7.37
2023-04-12T03:42:40.868Z,7.35
2023-04-12T03:45:44.413Z,7.48
2023-04-12T03:48:46.865Z,7.53
2023-04-12T03:51:50.785Z,7.47
2023-04-12T03:54:53.145Z,7.47
2023-04-12T03:57:57.904Z,7.46
2023-04-12T04:01:06.107Z,7.49
2023-04-12T04:04:09.958Z,7.47
2023-04-12T04:07:12.697Z,7.51
2023-04-12T04:10:15.881Z,7.52
2023-04-12T04:13:18.736Z,7.51
2023-04-12T04:16:22.072Z,7.50
2023-04-12T04:19:25.429Z,7.48
2023-04-12T04:22:29.539Z,7.50
2023-04-12T04:25:34.529Z,7.61
2023-04-12T04:28:45.120Z,7.54
2023-04-12T04:31:48.753Z,7.55
2023-04-12T04:34:52.701Z,7.58
2023-04-12T04:37:55.699Z,7.59
2023-04-12T04:41:03.002Z,7.69
2023-04-12T04:44:10.415Z,7.66
2023-04-12T04:47:14.040Z,7.74
2023-04-12T04:50:16.418Z,7.85
2023-04-12T04:53:21.201Z,7.88
2023-04-12T04:56:25.080Z,7.95
2023-04-12T04:59:28.274Z,8.07
2023-04-12T05:02:32.020Z,8.14
2023-04-12T05:05:35.982Z,8.14
2023-04-12T05:08:39.094Z,8.21
2023-04-12T05:11:42.036Z,8.17
2023-04-12T05:14:48.124Z,8.22
2023-04-12T05:17:54.550Z,8.30
2023-04-12T05:21:02.647Z,8.35
2023-04-12T05:24:06.137Z,8.37
2023-04-12T05:27:08.963Z,8.57
2023-04-12T05:30:12.376Z,8.64
2023-04-12T05:33:15.858Z,8.67
2023-04-12T05:36:18.934Z,8.60
2023-04-12T05:39:21.354Z,8.79
2023-04-12T05:42:24.480Z,8.96
2023-04-12T05:45:27.166Z,8.83
2023-04-12T05:48:30.491Z,8.87
2023-04-12T05:51:40.914Z,8.92
2023-04-12T05:54:46.945Z,9.00
2023-04-12T05:57:49.751Z,9.12
2023-04-12T06:00:54.320Z,9.17
2023-04-12T06:04:02.478Z,9.21
2023-04-12T06:07:05.727Z,9.34
2023-04-12T06:10:08.680Z,9.41
2023-04-12T06:13:11.418Z,9.56
2023-04-12T06:16:15.949Z,9.71
2023-04-12T06:19:18.723Z,9.61
2023-04-12T06:22:21.344Z,9.67
2023-04-12T06:25:24.259Z,9.71
2023-04-12T06:28:27.186Z,9.85
2023-04-12T06:31:29.964Z,9.89
2023-04-12T06:34:34.421Z,10.04
2023-04-12T06:37:37.953Z,10.25
2023-04-12T06:40:40.624Z,10.34
2023-04-12T06:43:43.249Z,10.41
2023-04-12T06:46:46.555Z,10.74
2023-04-12T06:49:52.782Z,10.79
2023-04-12T06:52:57.363Z,11.06
2023-04-12T06:56:04.160Z,11.14
2023-04-12T06:59:06.797Z,11.46
2023-04-12T07:02:12.126Z,11.67
2023-04-12T07:05:14.863Z,11.85
2023-04-12T07:08:17.486Z,12.19
2023-04-12T07:11:22.751Z,12.31
2023-04-12T07:14:26.216Z,12.38
2023-04-12T07:17:28.902Z,12.65
2023-04-12T07:20:31.656Z,13.04
2023-04-12T07:23:34.352Z,13.36
2023-04-12T07:26:37.040Z,13.53
2023-04-12T07:29:39.689Z,13.74
2023-04-12T07:32:42.405Z,14.14
2023-04-12T07:35:45.264Z,14.43
2023-04-12T07:38:48.825Z,14.73
2023-04-12T07:41:51.885Z,15.27
2023-04-12T07:44:54.448Z,15.47
2023-04-12T07:47:57.174Z,15.77
2023-04-12T07:51:00.128Z,16.31
2023-04-12T07:54:03.803Z,16.41
2023-04-12T07:57:06.610Z,16.80
2023-04-12T08:00:10.479Z,17.19
2023-04-12T08:03:16.778Z,17.59
2023-04-12T08:06:19.510Z,18.03
2023-04-12T08:09:22.138Z,18.39
2023-04-12T08:12:24.726Z,18.82
2023-04-12T08:15:27.378Z,19.18
2023-04-12T08:18:30.292Z,19.68
2023-04-12T08:21:33.915Z,19.93
2023-04-12T08:24:36.553Z,20.27
2023-04-12T08:27:39.755Z,20.69
2023-04-12T08:30:43.137Z,20.93
2023-04-12T08:33:45.763Z,21.05
2023-04-12T08:36:48.643Z,21.36
2023-04-12T08:39:51.375Z,21.51
2023-04-12T08:42:54.821Z,22.00
2023-04-12T08:45:59.044Z,22.48
2023-04-12T08:49:01.734Z,22.99
2023-04-12T08:52:06.074Z,23.43
2023-04-12T08:55:09.999Z,23.77
2023-04-12T08:58:15.748Z,24.24
2023-04-12T09:01:20.545Z,24.36
2023-04-12T09:04:23.714Z,24.89
2023-04-12T09:07:30.646Z,25.06
2023-04-12T09:10:34.249Z,25.05
2023-04-12T09:13:39.514Z,25.38
2023-04-12T09:16:42.741Z,25.66
2023-04-12T09:19:45.422Z,25.94
2023-04-12T09:22:48.915Z,26.34
2023-04-12T09:25:54.482Z,26.83
2023-04-12T09:28:57.277Z,26.97
2023-04-12T09:32:06.983Z,27.08
2023-04-12T09:35:09.735Z,27.38
2023-04-12T09:38:12.924Z,27.52
2023-04-12T09:41:21.580Z,27.66
2023-04-12T09:44:32.751Z,27.75
2023-04-12T09:47:39.494Z,27.80
2023-04-12T09:50:42.949Z,27.93
2023-04-12T09:53:48.257Z,27.87
2023-04-12T09:56:51.177Z,28.22
2023-04-12T09:59:56.961Z,27.71
2023-04-12T10:03:00.063Z,27.43
2023-04-12T10:06:03.928Z,27.49
2023-04-12T10:09:06.919Z,27.24
2023-04-12T10:12:09.960Z,26.74
2023-04-12T10:15:13.290Z,26.80
2023-04-12T10:18:18.382Z,26.82
2023-04-12T10:21:21.093Z,27.02
2023-04-12T10:24:24.960Z,27.25
2023-04-12T10:27:27.895Z,27.87
2023-04-12T10:30:31.772Z,27.75
2023-04-12T10:33:34.241Z,27.89
2023-04-12T10:36:54.126Z,27.88
2023-04-12T10:39:56.863Z,27.74
2023-04-12T10:43:18.649Z,27.83
2023-04-12T10:46:40.008Z,27.86
2023-04-12T10:50:02.975Z,27.79
2023-04-12T10:53:18.259Z,27.67
2023-04-12T10:56:32.073Z,27.90
2023-04-12T10:59:56.061Z,28.04
2023-04-12T11:03:07.837Z,28.15
2023-04-12T11:06:26.028Z,28.09
2023-04-12T11:09:34.368Z,28.12
2023-04-12T11:12:38.805Z,28.07
2023-04-12T11:15:41.848Z,27.25
2023-04-12T11:18:47.559Z,26.07
2023-04-12T11:21:51.672Z,26.14
2023-04-12T11:25:01.504Z,26.41
2023-04-12T11:28:13.921Z,26.46
2023-04-12T11:31:23.509Z,26.21
2023-04-12T11:34:26.551Z,26.22
2023-04-12T11:37:30.410Z,25.95
2023-04-12T11:40:34.134Z,26.23
2023-04-12T11:43:38.760Z,26.12
2023-04-12T11:46:42.312Z,25.84
2023-04-12T11:49:45.598Z,25.39
2023-04-12T11:52:48.483Z,25.58
2023-04-12T11:55:51.032Z,25.58
2023-04-12T11:58:53.913Z,25.69
2023-04-12T12:01:56.239Z,25.42
2023-04-12T12:04:59.413Z,25.36
2023-04-12T12:08:05.852Z,25.32
2023-04-12T12:11:09.076Z,25.44
2023-04-12T12:14:11.455Z,25.15
2023-04-12T12:17:15.502Z,25.11
2023-04-12T12:20:24.449Z,24.94
2023-04-12T12:23:28.361Z,24.89
2023-04-12T12:26:30.758Z,24.87
2023-04-12T12:29:37.785Z,24.82
2023-04-12T12:32:40.361Z,24.88
2023-04-12T12:35:43.287Z,24.64
2023-04-12T12:38:45.699Z,24.06
2023-04-12T12:41:53.377Z,24.00
2023-04-12T12:44:55.749Z,24.10
2023-04-12T12:48:03.041Z,24.02
2023-04-12T12:51:06.106Z,23.99
2023-04-12T12:54:08.955Z,24.01
2023-04-12T12:57:11.218Z,23.85
2023-04-12T13:00:15.440Z,23.60
2023-04-12T13:03:18.032Z,23.35
2023-04-12T13:06:21.254Z,23.29
2023-04-12T13:09:23.540Z,23.45
2023-04-12T13:12:26.902Z,23.51
2023-04-12T13:15:29.228Z,23.44
2023-04-12T13:18:32.094Z,23.24
2023-04-12T13:21:34.448Z,22.88
2023-04-12T13:24:37.335Z,22.64
2023-04-12T13:27:39.646Z,22.56
2023-04-12T13:30:42.668Z,22.54
2023-04-12T13:33:44.959Z,22.45
2023-04-12T13:36:49.089Z,22.20
2023-04-12T13:39:51.607Z,22.09
2023-04-12T13:42:54.474Z,21.93
2023-04-12T13:45:56.755Z,21.70
2023-04-12T13:48:59.740Z,21.58
2023-04-12T13:52:02.926Z,21.55
2023-04-12T13:55:08.437Z,21.30
2023-04-12T13:58:10.865Z,21.21
2023-04-12T14:01:13.838Z,21.25
2023-04-12T14:04:16.576Z,21.08
2023-04-12T14:07:19.386Z,21.15
2023-04-12T14:10:21.965Z,21.03
2023-04-12T14:13:24.975Z,20.90
2023-04-12T14:16:27.574Z,20.69
2023-04-12T14:19:30.391Z,20.56
2023-04-12T14:22:32.938Z,20.50
2023-04-12T14:25:37.461Z,20.41
2023-04-12T14:28:40.011Z,20.23
2023-04-12T14:31:42.897Z,20.31
2023-04-12T14:34:46.416Z,20.09
2023-04-12T14:37:49.011Z,19.85
2023-04-12T14:40:52.039Z,19.48
2023-04-12T14:43:54.617Z,19.42
2023-04-12T14:46:57.498Z,19.20
2023-04-12T14:50:00.555Z,18.94
2023-04-12T14:53:03.197Z,18.90
2023-04-12T14:56:16.055Z,18.69
2023-04-12T14:59:18.766Z,18.50
2023-04-12T15:02:23.936Z,18.36
2023-04-12T15:05:27.682Z,18.28
2023-04-12T15:08:30.259Z,18.40
2023-04-12T15:11:35.582Z,18.14
2023-04-12T15:14:38.234Z,17.96
2023-04-12T15:17:40.936Z,17.85
2023-04-12T15:20:43.577Z,17.72
2023-04-12T15:23:46.341Z,17.64
2023-04-12T15:26:50.125Z,17.55
2023-04-12T15:29:52.658Z,17.35
2023-04-12T15:32:55.465Z,17.19
2023-04-12T15:36:00.175Z,17.11
2023-04-12T15:39:04.712Z,17.04
2023-04-12T15:42:07.390Z,16.91
2023-04-12T15:45:10.771Z,16.76
2023-04-12T15:48:13.392Z,16.64
2023-04-12T15:51:16.568Z,16.51
2023-04-12T15:54:19.381Z,16.53
2023-04-12T15:57:21.982Z,16.45
2023-04-12T16:00:26.085Z,16.32
2023-04-12T16:03:29.217Z,16.54
2023-04-12T16:06:35.623Z,16.41
2023-04-12T16:09:39.683Z,16.30
2023-04-12T16:12:42.113Z,16.01
2023-04-12T16:15:45.679Z,15.87
2023-04-12T16:18:48.305Z,15.82
2023-04-12T16:21:51.277Z,15.90
2023-04-12T16:24:54.929Z,15.71
2023-04-12T16:28:02.288Z,15.78
2023-04-12T16:31:05.349Z,15.57
2023-04-12T16:34:10.021Z,15.48
2023-04-12T16:37:12.765Z,15.78
2023-04-12T16:40:17.320Z,15.45
2023-04-12T16:43:19.701Z,15.39
2023-04-12T16:46:22.862Z,15.33
2023-04-12T16:49:25.206Z,15.34
2023-04-12T16:52:28.057Z,15.34
2023-04-12T16:55:30.798Z,15.10
2023-04-12T16:58:33.666Z,14.98
2023-04-12T17:01:36.025Z,15.11
2023-04-12T17:04:38.925Z,15.20
2023-04-12T17:07:43.050Z,15.34
2023-04-12T17:10:46.001Z,15.04
2023-04-12T17:13:50.409Z,14.81
2023-04-12T17:16:53.345Z,14.66
2023-04-12T17:19:56.007Z,14.66
2023-04-12T17:22:59.150Z,14.92
2023-04-12T17:26:01.505Z,14.88
2023-04-12T17:29:04.478Z,14.77
2023-04-12T17:32:07.078Z,14.44
2023-04-12T17:35:10.164Z,14.35
2023-04-12T17:38:12.551Z,14.54
2023-04-12T17:41:15.435Z,14.21
2023-04-12T17:44:17.824Z,14.07
2023-04-12T17:47:20.818Z,13.99
2023-04-12T17:50:23.228Z,13.94
2023-04-12T17:53:26.158Z,13.93
2023-04-12T17:56:28.510Z,13.88
2023-04-12T17:59:31.823Z,13.84
2023-04-12T18:02:34.354Z,13.85
2023-04-12T18:05:37.561Z,13.77
2023-04-12T18:08:39.941Z,13.73
2023-04-12T18:11:43.385Z,13.69
2023-04-12T18:14:45.717Z,13.67
2023-04-12T18:17:48.678Z,13.62
2023-04-12T18:20:53.890Z,13.58
2023-04-12T18:23:56.979Z,13.52
2023-04-12T18:27:00.224Z,13.49
2023-04-12T18:30:03.499Z,13.47
2023-04-12T18:36:10.872Z,13.42
2023-04-12T18:39:13.277Z,13.41
2023-04-12T18:42:16.473Z,13.42
2023-04-12T18:45:19.952Z,13.38
2023-04-12T18:48:22.960Z,13.33
2023-04-12T18:51:25.271Z,13.31
2023-04-12T18:54:29.045Z,13.30
2023-04-12T18:57:31.479Z,13.28
2023-04-12T19:00:34.421Z,13.25
2023-04-12T19:03:37.000Z,13.23
2023-04-12T19:06:40.178Z,13.23
2023-04-12T19:09:42.578Z,13.20
2023-04-12T19:12:45.587Z,13.16
2023-04-12T19:15:47.905Z,13.13
2023-04-12T19:18:50.953Z,13.11
2023-04-12T19:21:53.285Z,13.10
2023-04-12T19:24:56.154Z,13.11
2023-04-12T19:27:59.213Z,13.10
2023-04-12T19:31:03.966Z,13.07
2023-04-12T19:34:06.816Z,13.03
2023-04-12T19:37:09.896Z,13.01
2023-04-12T19:40:15.318Z,13.14
2023-04-12T19:43:21.475Z,13.00
2023-04-12T19:46:23.936Z,12.92
2023-04-12T19:49:27.273Z,12.89
2023-04-12T19:52:30.575Z,12.88
2023-04-12T19:55:33.540Z,12.83
2023-04-12T19:58:35.910Z,12.81
2023-04-12T20:01:47.889Z,12.77
2023-04-12T20:04:51.311Z,12.73
2023-04-12T20:07:56.163Z,12.70
2023-04-12T20:10:59.311Z,12.67
2023-04-12T20:14:01.935Z,12.65
2023-04-12T20:17:06.051Z,12.62
2023-04-12T20:20:15.538Z,12.56
2023-04-12T20:23:18.351Z,12.52
2023-04-12T20:26:21.411Z,12.46
2023-04-12T20:29:24.128Z,12.41
2023-04-12T20:32:26.773Z,12.38
2023-04-12T20:35:29.512Z,12.36
2023-04-12T20:38:32.197Z,12.37
2023-04-12T20:41:38.219Z,12.35
2023-04-12T20:44:40.887Z,12.31
2023-04-12T20:47:43.580Z,12.28
2023-04-12T20:50:46.603Z,12.25
2023-04-12T20:53:51.212Z,12.23
2023-04-12T20:56:54.318Z,12.20
2023-04-12T20:59:56.897Z,12.16
2023-04-12T21:03:02.976Z,12.08
2023-04-12T21:06:06.881Z,11.97
2023-04-12T21:09:10.144Z,11.91
2023-04-12T21:12:12.919Z,11.88
2023-04-12T21:15:18.356Z,11.88
2023-04-12T21:18:21.027Z,11.88
2023-04-12T21:21:23.784Z,11.85
2023-04-12T21:24:26.718Z,11.83
2023-04-12T21:27:29.890Z,11.80
2023-04-12T21:30:32.707Z,11.80
2023-04-12T21:33:36.551Z,11.78
2023-04-12T21:36:39.916Z,11.75
2023-04-12T21:39:43.648Z,11.74
2023-04-12T21:42:46.301Z,11.75
2023-04-12T21:45:48.947Z,11.74
2023-04-12T21:48:52.662Z,11.72
2023-04-12T21:51:57.024Z,11.73
2023-04-12T21:55:00.128Z,11.74
2023-04-12T21:58:03.633Z,11.71
2023-04-12T22:01:07.091Z,11.67
2023-04-12T22:04:10.069Z,11.64
2023-04-12T22:07:13.185Z,11.64
2023-04-12T22:10:16.438Z,11.64
2023-04-12T22:13:23.568Z,11.65
2023-04-12T22:16:27.880Z,11.65
2023-04-12T22:19:30.183Z,11.66
2023-04-12T22:22:33.354Z,11.65
2023-04-12T22:25:35.728Z,11.63
2023-04-12T22:28:38.649Z,11.61
2023-04-12T22:31:43.597Z,11.59
2023-04-12T22:34:48.354Z,11.53
2023-04-12T22:37:53.129Z,11.51
2023-04-12T22:41:02.440Z,11.48
2023-04-12T22:44:04.908Z,11.46
2023-04-12T22:47:07.842Z,11.45
2023-04-12T22:50:10.916Z,11.44
2023-04-12T22:53:14.071Z,11.42
2023-04-12T22:56:16.858Z,11.40
2023-04-12T22:59:20.174Z,11.40
2023-04-12T23:02:22.725Z,11.40
2023-04-12T23:05:26.151Z,11.40
2023-04-12T23:08:29.335Z,11.42
2023-04-12T23:11:36.032Z,11.43
2023-04-12T23:14:38.540Z,11.45
2023-04-12T23:17:41.940Z,11.49
2023-04-12T23:20:44.869Z,11.50
2023-04-12T23:23:48.440Z,11.52
2023-04-12T23:26:50.917Z,11.68
2023-04-12T23:29:53.788Z,11.62
2023-04-12T23:32:58.333Z,11.70
2023-04-12T23:36:05.180Z,11.69
2023-04-12T23:39:09.412Z,11.64
2023-04-12T23:42:12.262Z,11.63
2023-04-12T23:45:14.868Z,11.63
2023-04-12T23:48:18.367Z,11.63
2023-04-12T23:51:22.019Z,11.56
2023-04-12T23:54:24.809Z,11.49
2023-04-12T23:57:27.237Z,11.51
